createdAt,value
2019-02-12T00:01:10.727Z,11.40
2019-02-12T00:03:40.097Z,11.40
2019-02-12T00:06:12.040Z,11.20
2019-02-12T00:08:47.140Z,10.83
2019-02-12T00:11:20.987Z,11.60
2019-02-12T00:13:50.669Z,10.63
2019-02-12T00:16:20.022Z,10.47
2019-02-12T00:18:51.965Z,11.00
2019-02-12T00:21:21.345Z,11.33
2019-02-12T00:23:50.970Z,10.43
2019-02-12T00:26:22.600Z,10.70
2019-02-12T00:28:53.973Z,10.60
2019-02-12T00:31:23.331Z,10.90
2019-02-12T00:33:52.601Z,10.87
2019-02-12T00:36:22.013Z,11.27
2019-02-12T00:38:51.306Z,10.47
2019-02-12T00:41:20.661Z,11.80
2019-02-12T00:43:50.037Z,11.27
2019-02-12T00:46:19.326Z,10.80
2019-02-12T00:48:48.687Z,11.83
2019-02-12T00:51:18.155Z,12.33
2019-02-12T00:53:47.539Z,12.57
2019-02-12T00:56:16.935Z,12.20
2019-02-12T00:58:49.451Z,13.27
2019-02-12T01:01:18.787Z,11.67
2019-02-12T01:03:48.068Z,12.87
2019-02-12T01:06:17.434Z,13.63
2019-02-12T01:08:46.774Z,13.87
2019-02-12T01:11:16.331Z,14.93
2019-02-12T01:13:45.715Z,13.93
2019-02-12T01:16:15.117Z,14.63
2019-02-12T01:18:44.422Z,14.40
2019-02-12T01:21:14.098Z,14.77
2019-02-12T01:23:43.617Z,14.13
2019-02-12T01:26:13.364Z,14.40
2019-02-12T01:28:42.801Z,13.77
2019-02-12T01:31:12.003Z,15.63
2019-02-12T01:33:41.574Z,15.73
2019-02-12T01:36:10.938Z,15.17
2019-02-12T01:38:40.270Z,14.63
2019-02-12T01:41:10.174Z,15.13
2019-02-12T01:43:39.839Z,14.40
2019-02-12T01:46:09.197Z,14.00
2019-02-12T01:48:39.044Z,14.37
2019-02-12T01:51:08.538Z,13.60
2019-02-12T01:53:38.185Z,15.13
2019-02-12T01:56:07.476Z,13.67
2019-02-12T01:58:36.868Z,14.30
2019-02-12T02:01:06.212Z,12.97
2019-02-12T02:03:35.660Z,13.33
2019-02-12T02:06:05.316Z,13.13
2019-02-12T02:08:34.662Z,12.27
2019-02-12T02:11:04.006Z,13.80
2019-02-12T02:13:35.009Z,13.53
2019-02-12T02:16:04.880Z,12.80
2019-02-12T02:18:34.223Z,13.70
2019-02-12T02:21:03.722Z,13.67
2019-02-12T02:23:32.986Z,13.50
2019-02-12T02:26:02.327Z,13.10
2019-02-12T02:28:31.845Z,13.07
2019-02-12T02:31:01.178Z,13.23
2019-02-12T02:33:30.527Z,13.13
2019-02-12T02:36:00.166Z,14.27
2019-02-12T02:38:29.438Z,14.40
2019-02-12T02:40:58.666Z,13.97
2019-02-12T02:43:27.972Z,13.97
2019-02-12T02:45:57.302Z,14.17
2019-02-12T02:48:26.682Z,14.20
2019-02-12T02:50:56.326Z,13.87
2019-02-12T02:53:25.606Z,14.27
2019-02-12T02:55:54.882Z,14.00
2019-02-12T02:58:24.198Z,14.50
2019-02-12T03:00:54.026Z,15.37
2019-02-12T03:03:23.378Z,13.90
2019-02-12T03:05:53.041Z,15.20
2019-02-12T03:08:22.291Z,15.80
2019-02-12T03:10:52.337Z,17.30
2019-02-12T03:13:21.957Z,17.00
2019-02-12T03:15:51.228Z,15.40
2019-02-12T03:18:20.784Z,15.67
2019-02-12T03:20:50.387Z,16.87
2019-02-12T03:23:19.673Z,17.23
2019-02-12T03:25:49.285Z,17.83
2019-02-12T03:28:18.781Z,17.33
2019-02-12T03:30:47.990Z,16.20
2019-02-12T03:33:17.325Z,17.87
2019-02-12T03:35:46.642Z,17.97
2019-02-12T03:38:15.987Z,19.00
2019-02-12T03:40:45.279Z,17.60
2019-02-12T03:43:15.862Z,17.37
2019-02-12T03:45:45.249Z,18.47
2019-02-12T03:48:14.898Z,18.37
2019-02-12T03:50:44.267Z,19.60
2019-02-12T03:53:13.618Z,19.50
2019-02-12T03:55:42.963Z,19.97
2019-02-12T03:58:12.487Z,20.50
2019-02-12T04:00:41.741Z,20.60
2019-02-12T04:03:11.106Z,21.60
2019-02-12T04:05:40.978Z,21.20
2019-02-12T04:08:10.693Z,21.33
2019-02-12T04:10:40.052Z,21.33
2019-02-12T04:13:09.650Z,22.70
2019-02-12T04:15:39.564Z,22.77
2019-02-12T04:18:09.198Z,21.70
2019-02-12T04:20:38.524Z,21.97
2019-02-12T04:23:07.867Z,22.33
2019-02-12T04:25:37.428Z,21.93
2019-02-12T04:28:06.821Z,21.90
2019-02-12T04:30:36.093Z,22.03
2019-02-12T04:33:05.454Z,22.23
2019-02-12T04:35:34.817Z,23.33
2019-02-12T04:38:07.443Z,21.20
2019-02-12T04:40:36.802Z,22.10
2019-02-12T04:43:06.391Z,22.90
2019-02-12T04:45:35.664Z,22.53
2019-02-12T04:48:04.941Z,22.43
2019-02-12T04:50:34.592Z,24.70
2019-02-12T04:53:06.078Z,23.17
2019-02-12T04:55:37.038Z,22.93
2019-02-12T04:58:06.428Z,22.67
2019-02-12T05:00:35.982Z,24.00
2019-02-12T05:03:05.352Z,21.83
2019-02-12T05:05:34.995Z,23.57
2019-02-12T05:08:04.272Z,21.47
2019-02-12T05:10:35.923Z,21.43
2019-02-12T05:13:08.549Z,21.27
2019-02-12T05:15:38.330Z,21.80
2019-02-12T05:18:07.693Z,22.93
2019-02-12T05:20:37.091Z,21.20
2019-02-12T05:23:06.514Z,22.67
2019-02-12T05:25:35.854Z,22.87
2019-02-12T05:28:05.246Z,21.93
2019-02-12T05:30:39.575Z,23.00
2019-02-12T05:33:12.893Z,22.87
2019-02-12T05:35:42.227Z,23.70
2019-02-12T05:38:11.861Z,24.63
2019-02-12T05:40:41.815Z,24.53
2019-02-12T05:43:11.180Z,24.10
2019-02-12T05:45:40.447Z,23.80
2019-02-12T05:48:09.868Z,25.03
2019-02-12T05:50:39.721Z,22.43
2019-02-12T05:53:09.074Z,24.93
2019-02-12T05:55:38.747Z,22.73
2019-02-12T05:58:10.173Z,21.23
2019-02-12T06:00:39.541Z,20.33
2019-02-12T06:03:09.242Z,19.33
2019-02-12T06:05:38.543Z,21.07
2019-02-12T06:08:07.887Z,19.83
2019-02-12T06:10:37.209Z,18.77
2019-02-12T06:13:06.934Z,19.13
2019-02-12T06:15:38.753Z,18.37
2019-02-12T06:18:08.342Z,19.20
2019-02-12T06:20:37.907Z,20.63
2019-02-12T06:23:07.850Z,22.00
2019-02-12T06:25:40.558Z,21.13
2019-02-12T06:28:12.041Z,21.90
2019-02-12T06:30:41.395Z,27.10
2019-02-12T06:33:10.850Z,27.10
2019-02-12T06:35:40.124Z,26.67
2019-02-12T06:38:09.489Z,28.03
2019-02-12T06:40:42.175Z,26.50
2019-02-12T06:43:11.479Z,32.53
2019-02-12T06:45:41.456Z,27.77
2019-02-12T06:48:10.871Z,28.13
2019-02-12T06:50:40.231Z,25.47
2019-02-12T06:53:12.488Z,27.17
2019-02-12T06:55:41.100Z,25.10
2019-02-12T06:58:10.481Z,27.90
2019-02-12T07:00:39.759Z,30.47
2019-02-12T07:03:40.768Z,35.97
2019-02-12T07:06:37.255Z,28.90
2019-02-12T07:09:19.547Z,24.00
2019-02-12T07:12:25.653Z,24.03
2019-02-12T07:15:33.247Z,29.80
2019-02-12T07:18:45.265Z,21.90
2019-02-12T07:21:44.207Z,18.47
2019-02-12T07:24:43.440Z,18.23
2019-02-12T07:27:47.469Z,20.13
2019-02-12T07:31:04.969Z,20.20
2019-02-12T07:33:42.015Z,21.37
2019-02-12T07:36:36.205Z,20.67
2019-02-12T07:39:20.400Z,19.53
2019-02-12T07:42:05.319Z,18.80
2019-02-12T07:45:13.724Z,20.20
2019-02-12T07:48:14.454Z,20.60
2019-02-12T07:51:40.090Z,18.17
2019-02-12T07:54:47.454Z,17.10
2019-02-12T07:58:09.654Z,16.93
2019-02-12T08:01:02.693Z,16.87
2019-02-12T08:03:51.238Z,17.63
2019-02-12T08:07:16.678Z,16.77
2019-02-12T08:10:22.803Z,16.33
2019-02-12T08:13:38.924Z,17.63
2019-02-12T08:16:33.938Z,18.07
2019-02-12T08:19:32.835Z,19.07
2019-02-12T08:22:48.564Z,20.50
2019-02-12T08:25:53.559Z,19.37
2019-02-12T08:29:09.863Z,20.40
2019-02-12T08:32:13.667Z,22.13
2019-02-12T08:35:21.541Z,17.00
2019-02-12T08:38:38.069Z,17.80
2019-02-12T08:41:37.820Z,16.50
2019-02-12T08:44:42.054Z,17.03
2019-02-12T08:47:36.897Z,17.50
2019-02-12T08:50:27.569Z,18.40
2019-02-12T08:53:39.515Z,18.13
2019-02-12T08:56:37.619Z,17.73
2019-02-12T08:59:39.571Z,16.93
2019-02-12T09:02:28.137Z,17.17
2019-02-12T09:05:35.089Z,17.07
2019-02-12T09:08:54.787Z,18.57
2019-02-12T09:11:38.459Z,18.73
2019-02-12T09:14:33.699Z,18.57
2019-02-12T09:17:41.185Z,20.77
2019-02-12T09:21:09.408Z,21.00
2019-02-12T09:24:19.767Z,20.03
2019-02-12T09:27:41.853Z,18.43
2019-02-12T09:30:27.363Z,19.57
2019-02-12T09:33:38.338Z,19.00
2019-02-12T09:37:02.079Z,20.10
2019-02-12T09:39:57.836Z,19.40
2019-02-12T09:43:08.493Z,20.33
2019-02-12T09:46:13.450Z,20.20
2019-02-12T09:49:08.930Z,20.27
2019-02-12T09:52:02.419Z,21.50
2019-02-12T09:55:30.839Z,22.30
2019-02-12T09:58:29.208Z,24.27
2019-02-12T10:01:13.527Z,23.33
2019-02-12T10:04:18.754Z,23.53
2019-02-12T10:07:22.873Z,23.90
2019-02-12T10:10:42.485Z,24.53
2019-02-12T10:13:26.288Z,24.13
2019-02-12T10:16:39.900Z,22.47
2019-02-12T10:19:33.873Z,22.63
2019-02-12T10:22:44.164Z,23.97
2019-02-12T10:25:19.700Z,22.13
2019-02-12T10:28:48.606Z,22.40
2019-02-12T10:31:28.204Z,21.47
2019-02-12T10:33:57.748Z,20.97
2019-02-12T10:36:27.120Z,20.03
2019-02-12T10:38:56.700Z,20.37
2019-02-12T10:41:26.038Z,20.53
2019-02-12T10:43:55.318Z,19.00
2019-02-12T10:46:24.624Z,19.27
2019-02-12T10:48:54.268Z,16.73
2019-02-12T10:51:23.540Z,16.43
2019-02-12T10:53:53.506Z,15.90
2019-02-12T10:56:23.122Z,14.87
2019-02-12T10:58:52.459Z,15.20
2019-02-12T11:01:21.883Z,15.17
2019-02-12T11:03:51.240Z,13.60
2019-02-12T11:06:21.133Z,13.47
2019-02-12T11:08:50.465Z,14.37
2019-02-12T11:11:19.733Z,13.63
2019-02-12T11:13:49.043Z,13.67
2019-02-12T11:16:18.745Z,12.90
2019-02-12T11:18:48.035Z,13.07
2019-02-12T11:21:17.681Z,15.10
2019-02-12T11:23:47.030Z,11.53
2019-02-12T11:26:17.794Z,12.87
2019-02-12T11:28:47.285Z,13.20
2019-02-12T11:31:19.451Z,13.23
2019-02-12T11:33:49.762Z,13.80
2019-02-12T11:36:19.365Z,12.27
2019-02-12T11:38:49.051Z,11.83
2019-02-12T11:41:18.406Z,12.40
2019-02-12T11:43:47.689Z,12.03
2019-02-12T11:46:17.183Z,11.63
2019-02-12T11:48:46.521Z,10.87
2019-02-12T11:51:15.900Z,10.67
2019-02-12T11:53:45.306Z,10.40
2019-02-12T11:56:14.671Z,9.80
2019-02-12T11:58:44.249Z,10.00
2019-02-12T12:01:17.897Z,11.37
2019-02-12T12:03:47.243Z,9.93
2019-02-12T12:06:16.580Z,10.37
2019-02-12T12:08:46.154Z,9.60
2019-02-12T12:11:15.566Z,9.47
2019-02-12T12:13:44.845Z,9.03
2019-02-12T12:16:14.238Z,8.97
2019-02-12T12:18:43.773Z,9.73
2019-02-12T12:21:13.383Z,8.90
2019-02-12T12:23:42.777Z,8.87
2019-02-12T12:26:13.523Z,9.47
2019-02-12T12:28:43.436Z,9.27
2019-02-12T12:31:12.762Z,9.70
2019-02-12T12:33:42.188Z,9.10
2019-02-12T12:36:11.537Z,9.10
2019-02-12T12:38:40.909Z,9.03
2019-02-12T12:41:10.259Z,9.07
2019-02-12T12:43:39.535Z,8.17
2019-02-12T12:46:09.199Z,9.50
2019-02-12T12:48:40.048Z,8.37
2019-02-12T12:51:09.393Z,8.30
2019-02-12T12:53:38.784Z,8.70
2019-02-12T12:56:08.643Z,9.13
2019-02-12T12:58:38.002Z,8.50
2019-02-12T13:01:07.413Z,8.50
2019-02-12T13:03:36.703Z,8.80
2019-02-12T13:06:05.986Z,8.87
2019-02-12T13:08:36.890Z,8.60
2019-02-12T13:11:06.229Z,8.77
2019-02-12T13:13:35.942Z,8.93
2019-02-12T13:16:05.366Z,8.10
2019-02-12T13:18:36.143Z,8.67
2019-02-12T13:21:05.769Z,8.57
2019-02-12T13:23:35.209Z,8.67
2019-02-12T13:26:04.679Z,7.87
2019-02-12T13:28:34.025Z,8.50
2019-02-12T13:31:03.484Z,8.77
2019-02-12T13:33:32.839Z,8.43
2019-02-12T13:36:02.195Z,8.43
2019-02-12T13:38:31.937Z,7.77
2019-02-12T13:41:03.997Z,7.73
2019-02-12T13:43:33.968Z,7.00
2019-02-12T13:46:03.601Z,6.93
2019-02-12T13:48:33.215Z,8.10
2019-02-12T13:51:02.616Z,7.27
2019-02-12T13:53:32.268Z,7.37
2019-02-12T13:56:01.663Z,6.80
2019-02-12T13:58:30.932Z,7.30
2019-02-12T14:01:00.360Z,7.53
2019-02-12T14:03:29.718Z,6.77
2019-02-12T14:05:59.131Z,7.03
2019-02-12T14:08:28.765Z,7.97
2019-02-12T14:10:58.048Z,7.40
2019-02-12T14:13:27.712Z,7.33
2019-02-12T14:15:57.110Z,6.80
2019-02-12T14:18:26.410Z,6.87
2019-02-12T14:20:57.520Z,7.70
2019-02-12T14:23:27.497Z,6.80
2019-02-12T14:25:56.752Z,7.30
2019-02-12T14:28:26.342Z,6.80
2019-02-12T14:30:55.763Z,6.73
2019-02-12T14:33:25.160Z,6.93
2019-02-12T14:35:54.493Z,6.50
2019-02-12T14:38:23.882Z,6.80
2019-02-12T14:40:53.803Z,6.70
2019-02-12T14:43:23.727Z,6.50
2019-02-12T14:45:53.105Z,6.97
2019-02-12T14:48:22.785Z,6.63
2019-02-12T14:50:52.333Z,6.23
2019-02-12T14:53:21.704Z,6.60
2019-02-12T14:55:53.911Z,7.13
2019-02-12T14:58:23.580Z,6.20
2019-02-12T15:00:52.972Z,6.10
2019-02-12T15:03:22.443Z,6.80
2019-02-12T15:05:52.000Z,5.83
2019-02-12T15:08:23.084Z,5.77
2019-02-12T15:10:52.401Z,7.53
2019-02-12T15:13:21.755Z,7.20
2019-02-12T15:15:51.411Z,6.83
2019-02-12T15:18:20.836Z,6.07
2019-02-12T15:20:50.384Z,6.03
2019-02-12T15:23:19.969Z,6.37
2019-02-12T15:25:51.385Z,4.27
2019-02-12T15:28:21.110Z,4.60
2019-02-12T15:30:50.531Z,5.10
2019-02-12T15:33:19.873Z,4.83
2019-02-12T15:35:49.263Z,5.00
2019-02-12T15:38:18.560Z,4.70
2019-02-12T15:40:48.216Z,4.30
2019-02-12T15:43:17.494Z,4.07
2019-02-12T15:45:46.847Z,4.90
2019-02-12T15:48:16.409Z,4.90
2019-02-12T15:50:45.807Z,5.40
2019-02-12T15:53:15.208Z,5.53
2019-02-12T15:55:51.161Z,5.87
2019-02-12T15:58:15.574Z,6.03
2019-02-12T16:00:45.031Z,5.70
2019-02-12T16:03:16.168Z,5.67
2019-02-12T16:05:45.387Z,7.27
2019-02-12T16:08:15.057Z,8.60
2019-02-12T16:10:44.949Z,6.83
2019-02-12T16:13:14.299Z,13.73
2019-02-12T16:15:45.563Z,10.30
2019-02-12T16:18:17.665Z,8.77
2019-02-12T16:20:47.606Z,13.40
2019-02-12T16:23:16.966Z,8.67
2019-02-12T16:25:46.512Z,9.80
2019-02-12T16:28:16.194Z,11.27
2019-02-12T16:30:45.459Z,12.10
2019-02-12T16:33:14.833Z,11.10
2019-02-12T16:35:44.210Z,9.67
2019-02-12T16:38:14.697Z,11.03
2019-02-12T16:40:46.863Z,13.37
2019-02-12T16:43:16.262Z,14.13
2019-02-12T16:45:50.066Z,16.63
2019-02-12T16:48:19.419Z,15.73
2019-02-12T16:50:51.558Z,16.73
2019-02-12T16:53:20.767Z,13.60
2019-02-12T16:55:53.819Z,12.93
2019-02-12T16:58:22.357Z,12.37
2019-02-12T17:00:54.203Z,14.07
2019-02-12T17:03:23.846Z,13.83
2019-02-12T17:05:53.174Z,13.30
2019-02-12T17:08:22.558Z,14.23
2019-02-12T17:10:52.039Z,13.33
2019-02-12T17:13:21.987Z,13.60
2019-02-12T17:15:51.640Z,12.93
2019-02-12T17:18:20.909Z,12.90
2019-02-12T17:20:50.574Z,12.37
2019-02-12T17:23:19.941Z,12.40
2019-02-12T17:25:49.290Z,14.30
2019-02-12T17:28:18.547Z,13.43
2019-02-12T17:30:47.903Z,17.30
2019-02-12T17:33:18.029Z,16.60
2019-02-12T17:35:47.441Z,12.77
2019-02-12T17:38:16.707Z,13.33
2019-02-12T17:40:46.051Z,12.60
2019-02-12T17:43:15.549Z,12.90
2019-02-12T17:45:44.858Z,13.57
2019-02-12T17:48:14.210Z,12.80
2019-02-12T17:50:43.936Z,13.37
2019-02-12T17:53:14.615Z,12.67
2019-02-12T17:55:44.271Z,12.80
2019-02-12T17:58:13.896Z,11.93
2019-02-12T18:00:46.551Z,12.33
2019-02-12T18:03:15.915Z,13.10
2019-02-12T18:05:45.888Z,13.23
2019-02-12T18:08:15.239Z,12.40
2019-02-12T18:10:44.536Z,13.80
2019-02-12T18:13:14.218Z,13.80
2019-02-12T18:15:43.597Z,12.60
2019-02-12T18:18:13.186Z,12.93
2019-02-12T18:20:42.534Z,13.53
2019-02-12T18:23:11.881Z,14.13
2019-02-12T18:25:41.630Z,13.57
2019-02-12T18:28:11.070Z,13.93
2019-02-12T18:30:40.427Z,14.07
2019-02-12T18:33:09.768Z,13.83
2019-02-12T18:35:39.723Z,15.63
2019-02-12T18:38:09.002Z,16.13
2019-02-12T18:40:38.378Z,18.67
2019-02-12T18:43:07.784Z,16.47
2019-02-12T18:45:37.668Z,28.03
2019-02-12T18:48:07.212Z,21.67
2019-02-12T18:50:36.610Z,21.83
2019-02-12T18:53:06.522Z,17.73
2019-02-12T18:55:36.100Z,22.07
2019-02-12T18:58:05.717Z,29.60
2019-02-12T19:00:35.084Z,31.37
2019-02-12T19:03:05.085Z,29.30
2019-02-12T19:05:34.433Z,27.17
2019-02-12T19:08:04.392Z,32.47
2019-02-12T19:10:33.745Z,26.93
2019-02-12T19:13:03.115Z,24.47
2019-02-12T19:15:32.546Z,17.53
2019-02-12T19:18:08.496Z,16.83
2019-02-12T19:20:40.196Z,15.80
2019-02-12T19:23:09.577Z,17.63
2019-02-12T19:25:42.409Z,16.30
2019-02-12T19:28:12.067Z,16.87
2019-02-12T19:30:41.400Z,16.53
2019-02-12T19:33:11.144Z,16.67
2019-02-12T19:35:40.814Z,16.43
2019-02-12T19:38:10.512Z,17.37
2019-02-12T19:40:39.855Z,18.03
2019-02-12T19:43:09.234Z,17.37
2019-02-12T19:45:38.889Z,17.67
2019-02-12T19:48:08.843Z,18.63
2019-02-12T19:50:38.487Z,18.37
2019-02-12T19:53:08.045Z,18.43
2019-02-12T19:55:37.350Z,18.73
2019-02-12T19:58:09.408Z,16.93
2019-02-12T20:00:38.761Z,21.37
2019-02-12T20:03:08.229Z,18.77
2019-02-12T20:05:37.645Z,18.80
2019-02-12T20:08:06.910Z,20.50
2019-02-12T20:10:37.762Z,18.47
2019-02-12T20:13:07.407Z,18.17
2019-02-12T20:15:36.851Z,17.80
2019-02-12T20:18:06.573Z,19.93
2019-02-12T20:20:36.245Z,18.07
2019-02-12T20:23:05.905Z,18.97
2019-02-12T20:25:35.357Z,18.80
2019-02-12T20:28:04.684Z,17.67
2019-02-12T20:30:34.345Z,18.97
2019-02-12T20:33:03.774Z,18.57
2019-02-12T20:35:36.401Z,18.03
2019-02-12T20:38:04.396Z,19.53
2019-02-12T20:40:36.147Z,19.97
2019-02-12T20:43:05.588Z,20.53
2019-02-12T20:45:35.252Z,19.60
2019-02-12T20:48:04.874Z,18.13
2019-02-12T20:50:34.169Z,21.97
2019-02-12T20:53:03.515Z,20.47
2019-02-12T20:55:33.135Z,26.23
2019-02-12T20:58:05.922Z,24.43
2019-02-12T21:00:35.302Z,22.27
2019-02-12T21:03:04.914Z,21.87
2019-02-12T21:05:34.270Z,22.13
2019-02-12T21:08:03.730Z,20.67
2019-02-12T21:10:33.130Z,24.03
2019-02-12T21:13:02.541Z,24.57
2019-02-12T21:15:32.197Z,21.83
2019-02-12T21:18:01.925Z,20.50
2019-02-12T21:20:31.230Z,25.63
2019-02-12T21:23:00.801Z,21.83
2019-02-12T21:25:30.408Z,19.13
2019-02-12T21:28:00.032Z,19.07
2019-02-12T21:30:29.888Z,18.83
2019-02-12T21:32:59.277Z,19.23
2019-02-12T21:35:28.727Z,18.70
2019-02-12T21:37:58.492Z,18.50
2019-02-12T21:40:28.167Z,19.57
2019-02-12T21:42:57.519Z,18.57
2019-02-12T21:45:26.861Z,18.30
2019-02-12T21:47:56.102Z,18.50
2019-02-12T21:50:25.443Z,18.50
2019-02-12T21:52:55.060Z,19.60
2019-02-12T21:55:24.360Z,18.80
2019-02-12T21:57:54.151Z,19.97
2019-02-12T22:00:23.729Z,19.47
2019-02-12T22:02:53.037Z,20.53
2019-02-12T22:05:22.602Z,19.67
2019-02-12T22:07:51.973Z,19.60
2019-02-12T22:10:21.371Z,19.13
2019-02-12T22:12:51.045Z,19.63
2019-02-12T22:15:20.314Z,18.80
2019-02-12T22:17:51.313Z,18.87
2019-02-12T22:20:20.618Z,19.20
2019-02-12T22:22:49.966Z,19.43
2019-02-12T22:25:19.265Z,17.53
2019-02-12T22:27:48.604Z,18.27
2019-02-12T22:30:19.106Z,18.53
2019-02-12T22:32:48.959Z,18.80
2019-02-12T22:35:18.290Z,18.93
2019-02-12T22:37:47.566Z,18.53
2019-02-12T22:40:17.288Z,18.40
2019-02-12T22:42:46.541Z,18.43
2019-02-12T22:45:17.243Z,18.83
2019-02-12T22:47:46.891Z,18.57
2019-02-12T22:50:16.235Z,19.20
2019-02-12T22:52:45.778Z,18.67
2019-02-12T22:55:15.079Z,19.70
2019-02-12T22:57:49.240Z,18.73
2019-02-12T23:00:27.921Z,19.03
2019-02-12T23:02:57.293Z,18.73
2019-02-12T23:05:26.620Z,19.83
2019-02-12T23:07:56.226Z,19.70
2019-02-12T23:10:25.764Z,19.17
2019-02-12T23:12:55.066Z,19.23
2019-02-12T23:15:24.637Z,20.03
2019-02-12T23:17:53.983Z,19.60
2019-02-12T23:20:23.238Z,19.47
2019-02-12T23:22:52.574Z,19.77
2019-02-12T23:25:21.931Z,20.27
2019-02-12T23:27:57.249Z,18.17
2019-02-12T23:30:22.584Z,18.60
2019-02-12T23:32:52.204Z,19.13
2019-02-12T23:35:21.464Z,18.93
2019-02-12T23:37:50.891Z,18.83
2019-02-12T23:40:20.287Z,19.67
2019-02-12T23:42:49.633Z,19.43
2019-02-12T23:45:19.064Z,18.50
2019-02-12T23:47:48.684Z,18.70
2019-02-12T23:50:17.950Z,20.50
2019-02-12T23:52:47.430Z,20.20
2019-02-12T23:55:17.052Z,20.17
2019-02-12T23:57:46.398Z,20.10
